Time;durP1;ratioP1;P1;durP2;ratioP2;P2;SDS_P1;SDS_P2;PMS_P1;PMS_P2;Temp;Humidity;BMP_temperature;BMP_pressure;BME280_temperature;BME280_humidity;BME280_pressure;Samples;Min_cycle;Max_cycle;Signal;HPM_P1;HPM_P2
2024/02/21 00:01:20;;;;;;;;;;;;;;;17.95;59.55;101701.63;7399470;19;1279;-76
2024/02/21 00:03:48;;;;;;;;;;;;;;;17.91;59.77;101681.41;7396080;19;1053;-77
2024/02/21 00:06:16;;;;;;;;;;;;;;;17.91;59.76;101678.72;7396996;19;1847;-76
2024/02/21 00:08:45;;;;;;;;;;;;;;;17.90;59.71;101667.16;7400252;19;1595;-76
2024/02/21 00:11:13;;;;;;;;;;;;;;;17.83;59.88;101672.06;7397850;19;1853;-76
2024/02/21 00:13:44;;;;;;;;;;;;;;;17.81;59.84;101671.28;7398715;19;1853;-76
2024/02/21 00:16:15;;;;;;;;;;;;;;;17.81;59.82;101662.41;7398033;19;1271;-76
2024/02/21 00:18:43;;;;;;;;;;;;;;;17.79;59.80;101667.03;7394625;19;1667;-76
2024/02/21 00:21:17;;;;;;;;;;;;;;;17.87;59.87;101662.03;7396075;19;1571;-77
2024/02/21 00:23:45;;;;;;;;;;;;;;;18.31;58.90;101659.88;7395828;19;1834;-76
2024/02/21 00:26:14;;;;;;;;;;;;;;;18.49;58.47;101663.91;7397354;19;1828;-79
2024/02/21 00:28:45;;;;;;;;;;;;;;;18.29;58.99;101666.19;7397759;19;1446;-76
2024/02/21 00:31:14;;;;;;;;;;;;;;;18.09;59.36;101656.88;7400027;19;1017;-77
2024/02/21 00:33:42;;;;;;;;;;;;;;;18.00;59.53;101651.31;7399112;19;1853;-76
2024/02/21 00:36:10;;;;;;;;;;;;;;;17.94;59.74;101651.75;7397805;19;1512;-76
2024/02/21 00:38:39;;;;;;;;;;;;;;;17.92;59.68;101664.38;7397264;19;1883;-76
2024/02/21 00:41:07;;;;;;;;;;;;;;;17.85;59.96;101656.78;7394433;19;1505;-76
2024/02/21 00:43:35;;;;;;;;;;;;;;;17.79;59.94;101657.16;7397607;19;1531;-76
2024/02/21 00:46:08;;;;;;;;;;;;;;;17.81;59.86;101647.22;7394365;19;1872;-76
2024/02/21 00:48:36;;;;;;;;;;;;;;;17.80;60.00;101650.00;7398173;19;1346;-77
2024/02/21 00:51:05;;;;;;;;;;;;;;;17.77;60.00;101634.16;7398611;19;1284;-77
2024/02/21 00:53:33;;;;;;;;;;;;;;;17.68;60.14;101636.50;7396887;19;1746;-76
2024/02/21 00:56:01;;;;;;;;;;;;;;;17.72;60.19;101642.50;7394027;19;1571;-76
2024/02/21 00:58:29;;;;;;;;;;;;;;;18.17;59.16;101636.75;7387125;19;1240;-77
2024/02/21 01:00:58;;;;;;;;;;;;;;;18.48;58.48;101646.09;7394514;19;1700;-76
2024/02/21 01:03:29;;;;;;;;;;;;;;;18.42;58.35;101641.19;7395672;19;1481;-76
2024/02/21 01:05:57;;;;;;;;;;;;;;;18.13;59.15;101636.09;7396086;19;1859;-77
2024/02/21 01:08:26;;;;;;;;;;;;;;;18.02;59.49;101636.00;7395366;19;1718;-77
2024/02/21 01:10:55;;;;;;;;;;;;;;;17.92;59.65;101637.63;7399444;19;1500;-77
2024/02/21 01:13:23;;;;;;;;;;;;;;;17.87;59.55;101641.47;7401338;19;1542;-77
2024/02/21 01:15:52;;;;;;;;;;;;;;;17.84;59.75;101638.16;7398147;19;1488;-77
2024/02/21 01:18:20;;;;;;;;;;;;;;;17.77;59.79;101640.38;7399716;19;1692;-77
2024/02/21 01:20:51;;;;;;;;;;;;;;;17.73;60.14;101638.88;7400925;19;1812;-76
2024/02/21 01:23:19;;;;;;;;;;;;;;;17.70;59.91;101639.91;7399894;19;1488;-77
2024/02/21 01:25:47;;;;;;;;;;;;;;;17.67;60.15;101650.00;7396993;19;1854;-78
2024/02/21 01:28:16;;;;;;;;;;;;;;;17.62;60.23;101644.09;7399331;19;1555;-76
2024/02/21 01:30:44;;;;;;;;;;;;;;;18.03;59.44;101645.75;7400191;19;1492;-77
2024/02/21 01:33:13;;;;;;;;;;;;;;;18.42;58.59;101646.56;7397563;19;1551;-75
2024/02/21 01:35:41;;;;;;;;;;;;;;;18.61;57.82;101633.53;7398112;19;1145;-77
2024/02/21 01:38:12;;;;;;;;;;;;;;;18.75;57.53;101621.81;7399320;19;1854;-76
2024/02/21 01:40:40;;;;;;;;;;;;;;;18.82;57.37;101619.56;7395759;19;1199;-77
2024/02/21 01:43:17;;;;;;;;;;;;;;;18.90;57.24;101635.06;7396171;19;1826;-77
2024/02/21 01:45:46;;;;;;;;;;;;;;;18.55;58.06;101615.25;7394382;19;1892;-76
2024/02/21 01:48:14;;;;;;;;;;;;;;;18.20;58.86;101621.31;7395807;19;1828;-76
2024/02/21 01:50:43;;;;;;;;;;;;;;;18.14;58.99;101618.22;7397943;19;1510;-76
2024/02/21 01:53:18;;;;;;;;;;;;;;;18.06;59.20;101622.31;7402012;19;1489;-77
2024/02/21 01:55:47;;;;;;;;;;;;;;;17.97;59.25;101611.41;7402549;19;1014;-77
2024/02/21 01:58:16;;;;;;;;;;;;;;;17.94;59.43;101619.63;7394984;19;1570;-76
2024/02/21 02:00:45;;;;;;;;;;;;;;;17.85;59.53;101608.59;7396125;19;1470;-76
2024/02/21 02:03:16;;;;;;;;;;;;;;;17.82;59.75;101603.44;7398575;19;1869;-76
2024/02/21 02:05:46;;;;;;;;;;;;;;;17.79;59.65;101614.38;7398320;19;1899;-77
2024/02/21 02:08:18;;;;;;;;;;;;;;;17.66;60.03;101613.50;7400079;19;1742;-77
2024/02/21 02:10:47;;;;;;;;;;;;;;;17.69;60.22;101602.59;7398401;19;1531;-76
2024/02/21 02:13:15;;;;;;;;;;;;;;;18.25;58.77;101596.91;7398466;19;1825;-77
2024/02/21 02:15:44;;;;;;;;;;;;;;;18.80;57.59;101610.78;7395067;19;1195;-76
2024/02/21 02:18:12;;;;;;;;;;;;;;;19.42;56.16;101602.53;7396734;19;1381;-76
2024/02/21 02:20:41;;;;;;;;;;;;;;;19.65;55.37;101603.41;7393461;19;1486;-77
2024/02/21 02:23:11;;;;;;;;;;;;;;;19.89;55.06;101598.97;7395664;19;1100;-76
2024/02/21 02:25:43;;;;;;;;;;;;;;;20.02;54.55;101597.03;7395864;19;1836;-77
2024/02/21 02:28:12;;;;;;;;;;;;;;;20.20;54.40;101606.28;7396169;19;1594;-77
2024/02/21 02:30:40;;;;;;;;;;;;;;;20.25;54.29;101609.47;7395861;19;1836;-76
2024/02/21 02:33:09;;;;;;;;;;;;;;;20.35;53.92;101588.09;7395386;19;1603;-76
2024/02/21 02:35:37;;;;;;;;;;;;;;;20.41;53.82;101598.34;7393990;19;2516;-77
2024/02/21 02:38:06;;;;;;;;;;;;;;;20.59;53.29;101605.88;7396198;19;1637;-77
2024/02/21 02:40:36;;;;;;;;;;;;;;;20.50;53.56;101612.00;7394264;19;1834;-77
2024/02/21 02:43:14;;;;;;;;;;;;;;;20.58;53.36;101614.91;7396478;19;1326;-77
2024/02/21 02:45:43;;;;;;;;;;;;;;;20.54;53.47;101613.47;7393549;19;1846;-77
2024/02/21 02:48:11;;;;;;;;;;;;;;;20.61;53.34;101626.31;7393901;19;1389;-76
2024/02/21 02:50:40;;;;;;;;;;;;;;;20.72;53.20;101620.03;7393214;19;1472;-77
2024/02/21 02:53:08;;;;;;;;;;;;;;;20.14;53.19;101520.84;7395230;19;1614;-77
2024/02/21 02:55:37;;;;;;;;;;;;;;;20.77;53.21;101598.16;7396128;19;1809;-77
2024/02/21 02:58:08;;;;;;;;;;;;;;;20.77;53.29;101608.91;7395382;19;1629;-76
2024/02/21 03:00:39;;;;;;;;;;;;;;;20.74;53.11;101614.53;7383477;19;1443;-76
2024/02/21 03:03:08;;;;;;;;;;;;;;;20.80;53.03;101611.34;7391617;19;1539;-77
2024/02/21 03:05:36;;;;;;;;;;;;;;;20.79;53.21;101606.94;7393630;19;1331;-76
2024/02/21 03:08:06;;;;;;;;;;;;;;;20.89;52.87;101602.53;7389781;19;1854;-77
2024/02/21 03:10:35;;;;;;;;;;;;;;;20.91;52.99;101600.56;7394808;19;1845;-76
2024/02/21 03:13:03;;;;;;;;;;;;;;;20.85;53.30;101601.06;7392627;19;1131;-77
2024/02/21 03:15:34;;;;;;;;;;;;;;;20.96;53.00;101611.78;7390079;19;1554;-77
2024/02/21 03:18:03;;;;;;;;;;;;;;;20.93;52.78;101597.72;7389651;19;1453;-77
2024/02/21 03:20:32;;;;;;;;;;;;;;;20.95;52.82;101601.13;7392564;19;1196;-77
2024/02/21 03:23:00;;;;;;;;;;;;;;;20.90;52.99;101608.75;7391171;19;1591;-77
2024/02/21 03:25:28;;;;;;;;;;;;;;;20.89;53.08;101605.22;7393583;19;1442;-77
2024/02/21 03:27:57;;;;;;;;;;;;;;;20.98;52.95;101584.75;7390456;19;1935;-76
2024/02/21 03:30:25;;;;;;;;;;;;;;;20.74;53.54;101603.78;7392393;19;1918;-76
2024/02/21 03:32:56;;;;;;;;;;;;;;;20.36;54.32;101611.28;7400250;19;1051;-78
2024/02/21 03:35:26;;;;;;;;;;;;;;;20.23;54.76;101608.75;7402234;19;1497;-77
2024/02/21 03:37:54;;;;;;;;;;;;;;;20.13;54.92;101621.16;7402388;19;1508;-77
2024/02/21 03:40:23;;;;;;;;;;;;;;;20.39;54.54;101612.84;7402058;19;1384;-77
2024/02/21 03:42:51;;;;;;;;;;;;;;;20.61;53.94;101620.06;7400391;19;1508;-77
2024/02/21 03:45:19;;;;;;;;;;;;;;;20.65;53.64;101617.00;7399451;19;1034;-77
2024/02/21 03:47:48;;;;;;;;;;;;;;;20.66;53.78;101613.31;7400468;19;1859;-77
2024/02/21 03:50:19;;;;;;;;;;;;;;;20.69;53.63;101616.75;7403230;19;1505;-77
2024/02/21 03:52:47;;;;;;;;;;;;;;;20.75;53.39;101624.28;7403337;19;1926;-76
2024/02/21 03:55:16;;;;;;;;;;;;;;;20.69;53.66;101609.56;7402015;19;1867;-77
2024/02/21 03:57:44;;;;;;;;;;;;;;;20.70;53.50;101615.78;7404249;19;1327;-76
2024/02/21 04:00:13;;;;;;;;;;;;;;;20.44;54.20;101616.03;7408443;19;1357;-76
2024/02/21 04:02:41;;;;;;;;;;;;;;;19.80;55.64;101612.13;7426604;19;1357;-76
2024/02/21 04:05:11;;;;;;;;;;;;;;;19.34;56.65;101623.72;7426493;19;1671;-76
2024/02/21 04:07:43;;;;;;;;;;;;;;;18.99;57.48;101608.44;7423755;19;1824;-76
2024/02/21 04:10:12;;;;;;;;;;;;;;;18.83;57.85;101614.09;7424879;19;1841;-77
2024/02/21 04:12:41;;;;;;;;;;;;;;;18.72;58.06;101623.84;7425272;19;1922;-77
2024/02/21 04:15:09;;;;;;;;;;;;;;;18.87;57.82;101620.09;7427508;19;1128;-76
2024/02/21 04:17:38;;;;;;;;;;;;;;;19.50;56.42;101619.84;7423683;19;1505;-77
2024/02/21 04:20:10;;;;;;;;;;;;;;;19.46;56.46;101617.41;7411281;19;1801;-76
2024/02/21 04:22:39;;;;;;;;;;;;;;;19.59;56.29;101619.13;7414759;19;1906;-78
2024/02/21 04:25:12;;;;;;;;;;;;;;;19.71;55.95;101620.00;7414001;19;1821;-76
2024/02/21 04:27:40;;;;;;;;;;;;;;;19.72;55.69;101611.03;7421609;19;1819;-77
2024/02/21 04:30:09;;;;;;;;;;;;;;;19.75;55.62;101611.63;7421897;19;1849;-77
2024/02/21 04:32:38;;;;;;;;;;;;;;;19.79;55.82;101617.63;7415677;19;1454;-77
2024/02/21 04:35:07;;;;;;;;;;;;;;;19.79;55.52;101615.78;7403041;19;1848;-77
2024/02/21 04:37:35;;;;;;;;;;;;;;;19.83;55.60;101605.66;7402637;19;1617;-76
2024/02/21 04:40:04;;;;;;;;;;;;;;;19.77;55.51;101609.69;7397795;19;1355;-76
2024/02/21 04:42:35;;;;;;;;;;;;;;;19.84;55.46;101616.28;7396064;19;1498;-77
2024/02/21 04:45:03;;;;;;;;;;;;;;;19.80;55.45;101622.88;7399067;19;1129;-77
2024/02/21 04:47:31;;;;;;;;;;;;;;;19.79;55.61;101622.97;7398303;19;1843;-77
2024/02/21 04:50:00;;;;;;;;;;;;;;;19.76;55.72;101628.59;7403780;19;1468;-76
2024/02/21 04:52:28;;;;;;;;;;;;;;;19.78;55.68;101627.50;7403658;19;1653;-77
2024/02/21 04:54:56;;;;;;;;;;;;;;;19.79;55.65;101634.56;7402596;19;947;-77
2024/02/21 04:57:25;;;;;;;;;;;;;;;19.79;55.52;101629.19;7401790;19;1891;-77
2024/02/21 04:59:56;;;;;;;;;;;;;;;19.80;55.43;101633.59;7393676;19;1844;-76
2024/02/21 05:02:26;;;;;;;;;;;;;;;19.80;55.58;101641.66;7398352;19;1463;-77
2024/02/21 05:04:54;;;;;;;;;;;;;;;19.81;55.55;101635.31;7396959;19;1281;-76
2024/02/21 05:07:23;;;;;;;;;;;;;;;19.81;55.66;101654.09;7397584;19;1864;-76
2024/02/21 05:09:51;;;;;;;;;;;;;;;19.82;55.74;101644.22;7398300;19;1613;-76
2024/02/21 05:12:20;;;;;;;;;;;;;;;19.14;55.72;101536.75;7397354;19;1609;-77
2024/02/21 05:14:48;;;;;;;;;;;;;;;19.81;55.67;101648.72;7397884;19;1200;-76
2024/02/21 05:17:19;;;;;;;;;;;;;;;19.81;55.75;101640.66;7394228;19;1508;-76
2024/02/21 05:19:48;;;;;;;;;;;;;;;19.78;55.59;101643.59;7395140;19;1694;-77
2024/02/21 05:22:16;;;;;;;;;;;;;;;19.74;55.76;101641.28;7393792;19;1572;-77
2024/02/21 05:24:46;;;;;;;;;;;;;;;19.75;55.90;101664.44;7392473;19;1606;-77
2024/02/21 05:27:14;;;;;;;;;;;;;;;19.70;56.03;101655.88;7394017;19;1855;-77
2024/02/21 05:29:42;;;;;;;;;;;;;;;19.67;56.37;101668.53;7393106;19;1330;-77
2024/02/21 05:32:10;;;;;;;;;;;;;;;19.60;56.73;101655.75;7392402;19;1753;-76
2024/02/21 05:34:41;;;;;;;;;;;;;;;19.29;55.54;101660.75;7393516;19;1283;-76
2024/02/21 05:37:10;;;;;;;;;;;;;;;19.38;55.82;101652.00;7391333;19;1476;-77
2024/02/21 05:39:38;;;;;;;;;;;;;;;19.33;56.11;101656.84;7394913;19;1622;-77
2024/02/21 05:42:07;;;;;;;;;;;;;;;19.33;55.90;101659.53;7391338;19;1489;-76
2024/02/21 05:44:35;;;;;;;;;;;;;;;19.38;56.13;101668.09;7390979;19;1232;-76
2024/02/21 05:47:03;;;;;;;;;;;;;;;19.39;55.99;101658.22;7390574;19;1897;-76
2024/02/21 05:49:32;;;;;;;;;;;;;;;19.38;56.10;101657.38;7391751;19;1471;-75
2024/02/21 05:52:03;;;;;;;;;;;;;;;18.03;56.04;101447.72;7390466;19;1571;-77
2024/02/21 05:54:32;;;;;;;;;;;;;;;18.92;57.11;101671.53;7385231;19;1489;-76
2024/02/21 05:57:00;;;;;;;;;;;;;;;18.78;57.38;101671.63;7390014;19;1658;-76
2024/02/21 05:59:29;;;;;;;;;;;;;;;18.61;57.88;101667.53;7378970;19;1473;-76
2024/02/21 06:02:03;;;;;;;;;;;;;;;18.45;58.14;101670.44;7391735;19;1569;-76
2024/02/21 06:04:31;;;;;;;;;;;;;;;18.31;58.61;101663.41;7387409;19;1932;-77
2024/02/21 06:06:59;;;;;;;;;;;;;;;18.87;57.31;101679.06;7390403;19;1881;-76
2024/02/21 06:09:31;;;;;;;;;;;;;;;18.99;57.16;101664.75;7390869;19;1418;-75
2024/02/21 06:12:01;;;;;;;;;;;;;;;18.92;57.41;101666.19;7391836;19;1112;-77
2024/02/21 06:14:29;;;;;;;;;;;;;;;18.72;57.84;101677.44;7389235;19;1348;-76
2024/02/21 06:16:58;;;;;;;;;;;;;;;18.50;58.18;101676.31;7394163;19;1431;-76
2024/02/21 06:19:26;;;;;;;;;;;;;;;18.54;58.21;101680.47;7392853;19;1743;-76
2024/02/21 06:21:54;;;;;;;;;;;;;;;18.81;57.79;101693.75;7392714;19;1462;-76
2024/02/21 06:24:23;;;;;;;;;;;;;;;19.17;56.96;101693.84;7393108;19;1284;-76
2024/02/21 06:26:54;;;;;;;;;;;;;;;19.33;56.33;101696.22;7391728;19;1385;-76
2024/02/21 06:29:22;;;;;;;;;;;;;;;19.41;56.19;101681.25;7391598;19;1830;-76
2024/02/21 06:31:50;;;;;;;;;;;;;;;19.52;55.92;101738.59;7392361;19;1475;-77
2024/02/21 06:34:19;;;;;;;;;;;;;;;19.52;55.98;101693.00;7392032;19;1402;-76
2024/02/21 06:36:48;;;;;;;;;;;;;;;19.47;55.96;101704.09;7399576;19;1522;-76
2024/02/21 06:39:16;;;;;;;;;;;;;;;19.37;56.43;101698.56;7392650;19;1351;-75
2024/02/21 06:41:44;;;;;;;;;;;;;;;19.35;56.49;101719.28;7393490;19;1787;-76
2024/02/21 06:44:16;;;;;;;;;;;;;;;19.38;56.48;101715.53;7391290;19;1509;-76
2024/02/21 06:46:44;;;;;;;;;;;;;;;19.36;56.35;101712.97;7389618;19;1814;-76
2024/02/21 06:49:15;;;;;;;;;;;;;;;19.32;56.52;101716.84;7390142;19;1837;-77
2024/02/21 06:51:44;;;;;;;;;;;;;;;19.34;56.49;101705.97;7391146;19;1730;-76
2024/02/21 06:54:12;;;;;;;;;;;;;;;19.39;56.35;101719.91;7389789;19;1594;-76
2024/02/21 06:56:42;;;;;;;;;;;;;;;19.37;56.43;101714.66;7393906;19;1631;-75
2024/02/21 06:59:11;;;;;;;;;;;;;;;19.32;55.68;101711.47;7392055;19;1630;-77
2024/02/21 07:01:42;;;;;;;;;;;;;;;19.44;55.55;101715.06;7379415;19;1459;-76
2024/02/21 07:04:10;;;;;;;;;;;;;;;19.54;54.96;101712.56;7394123;19;1501;-76
2024/02/21 07:06:38;;;;;;;;;;;;;;;19.56;54.41;101724.88;7391541;19;1725;-76
2024/02/21 07:09:07;;;;;;;;;;;;;;;19.45;54.30;101711.41;7396723;19;1860;-76
2024/02/21 07:11:35;;;;;;;;;;;;;;;19.54;53.87;101720.59;7399499;19;1565;-76
2024/02/21 07:14:03;;;;;;;;;;;;;;;19.56;53.76;101718.66;7399702;19;1473;-76
2024/02/21 07:16:32;;;;;;;;;;;;;;;19.62;53.69;101713.66;7394121;19;1865;-76
2024/02/21 07:19:03;;;;;;;;;;;;;;;19.66;53.47;101714.28;7396968;19;1509;-75
2024/02/21 07:21:31;;;;;;;;;;;;;;;19.69;53.52;101703.31;7396794;19;1732;-76
2024/02/21 07:24:00;;;;;;;;;;;;;;;19.62;53.68;101711.00;7394824;19;1254;-76
2024/02/21 07:26:28;;;;;;;;;;;;;;;19.61;53.82;101711.09;7394051;19;1768;-76
2024/02/21 07:28:56;;;;;;;;;;;;;;;19.68;53.74;101705.16;7391476;19;1866;-76
2024/02/21 07:31:25;;;;;;;;;;;;;;;19.73;53.55;101715.56;7396205;19;1436;-76
2024/02/21 07:33:53;;;;;;;;;;;;;;;19.74;53.48;101708.38;7395643;19;1049;-76
2024/02/21 07:36:31;;;;;;;;;;;;;;;19.74;53.52;101711.06;7398890;19;1789;-76
2024/02/21 07:38:59;;;;;;;;;;;;;;;19.78;53.36;101717.91;7396544;19;1842;-76
2024/02/21 07:41:28;;;;;;;;;;;;;;;19.81;53.21;101713.13;7400324;19;1853;-76
2024/02/21 07:43:56;;;;;;;;;;;;;;;19.79;53.38;101709.72;7399581;19;1850;-76
2024/02/21 07:46:25;;;;;;;;;;;;;;;19.84;53.11;101699.50;7397447;19;1846;-77
2024/02/21 07:48:53;;;;;;;;;;;;;;;19.83;53.13;101711.19;7398063;19;1865;-78
2024/02/21 07:51:21;;;;;;;;;;;;;;;19.78;53.37;101702.66;7402299;19;1789;-76
2024/02/21 07:53:52;;;;;;;;;;;;;;;19.79;53.38;101712.41;7401386;19;1756;-77
2024/02/21 07:56:21;;;;;;;;;;;;;;;19.79;53.19;101711.56;7400144;19;1714;-76
2024/02/21 07:58:49;;;;;;;;;;;;;;;19.82;53.32;101711.31;7402566;19;1021;-76
2024/02/21 08:01:21;;;;;;;;;;;;;;;19.79;53.29;101700.81;7393123;19;1685;-76
2024/02/21 08:03:49;;;;;;;;;;;;;;;19.79;53.23;101714.22;7396217;19;1486;-75
2024/02/21 08:06:18;;;;;;;;;;;;;;;19.80;53.28;101703.38;7397028;19;1277;-76
2024/02/21 08:08:46;;;;;;;;;;;;;;;19.83;53.27;101719.25;7399054;19;1853;-76
2024/02/21 08:11:17;;;;;;;;;;;;;;;19.88;53.11;101729.66;7397106;19;1673;-76
2024/02/21 08:13:45;;;;;;;;;;;;;;;19.88;53.07;101718.91;7399241;19;1073;-76
2024/02/21 08:16:14;;;;;;;;;;;;;;;19.91;52.84;101713.28;7395648;19;1504;-76
2024/02/21 08:18:43;;;;;;;;;;;;;;;19.84;53.24;101717.44;7400991;19;1853;-76
2024/02/21 08:21:12;;;;;;;;;;;;;;;19.85;53.03;101713.75;7399972;19;1678;-76
2024/02/21 08:23:40;;;;;;;;;;;;;;;19.93;52.79;101715.84;7397657;19;1760;-76
2024/02/21 08:26:09;;;;;;;;;;;;;;;19.95;52.90;101705.84;7395643;19;1609;-77
2024/02/21 08:28:40;;;;;;;;;;;;;;;19.91;52.94;101702.53;7396734;19;1875;-76
2024/02/21 08:31:08;;;;;;;;;;;;;;;19.93;52.80;101713.16;7397100;19;1009;-76
2024/02/21 08:33:36;;;;;;;;;;;;;;;19.90;53.01;101713.44;7396484;19;1935;-76
2024/02/21 08:36:05;;;;;;;;;;;;;;;19.94;52.89;101706.84;7396695;19;1496;-76
2024/02/21 08:38:34;;;;;;;;;;;;;;;19.23;52.80;101583.44;7393047;19;1950;-77
2024/02/21 08:41:03;;;;;;;;;;;;;;;19.97;52.75;101711.97;7397348;19;1476;-76
2024/02/21 08:43:32;;;;;;;;;;;;;;;20.00;52.74;101714.41;7394980;19;1548;-76
2024/02/21 08:46:03;;;;;;;;;;;;;;;20.02;52.75;101709.78;7394003;19;1140;-76
2024/02/21 08:48:32;;;;;;;;;;;;;;;19.98;52.80;101697.56;7397388;19;1851;-76
2024/02/21 08:51:00;;;;;;;;;;;;;;;20.00;52.86;101711.75;7395245;19;1911;-76
2024/02/21 08:53:29;;;;;;;;;;;;;;;20.11;52.59;101719.78;7394087;19;1516;-76
2024/02/21 08:55:57;;;;;;;;;;;;;;;20.08;52.59;101713.81;7395380;19;1430;-76
2024/02/21 08:58:26;;;;;;;;;;;;;;;19.97;52.78;101701.22;7392675;19;1131;-77
2024/02/21 09:00:55;;;;;;;;;;;;;;;19.53;53.79;101714.34;7379693;19;1796;-75
2024/02/21 09:03:26;;;;;;;;;;;;;;;19.08;54.73;101687.34;7389885;19;1481;-76
2024/02/21 09:05:54;;;;;;;;;;;;;;;18.93;55.34;101707.22;7392622;19;1353;-76
2024/02/21 09:08:24;;;;;;;;;;;;;;;18.76;55.41;101713.78;7393688;19;1859;-76
2024/02/21 09:10:52;;;;;;;;;;;;;;;19.02;54.83;101719.94;7395572;19;1528;-77
2024/02/21 09:13:20;;;;;;;;;;;;;;;19.36;54.18;101707.59;7397160;19;1555;-76
2024/02/21 09:15:49;;;;;;;;;;;;;;;19.51;53.93;101718.13;7391143;19;1345;-76
2024/02/21 09:18:18;;;;;;;;;;;;;;;19.62;53.61;101697.56;7390962;19;1426;-76
2024/02/21 09:20:49;;;;;;;;;;;;;;;19.69;53.55;101703.31;7394476;19;1331;-76
2024/02/21 09:23:19;;;;;;;;;;;;;;;19.60;53.73;101712.94;7391491;19;1371;-76
2024/02/21 09:25:47;;;;;;;;;;;;;;;19.62;53.68;101713.66;7394435;19;1256;-76
2024/02/21 09:28:16;;;;;;;;;;;;;;;19.57;53.98;101712.31;7391145;19;1839;-76
2024/02/21 09:30:44;;;;;;;;;;;;;;;19.60;53.78;101704.03;7389926;19;1554;-76
2024/02/21 09:33:13;;;;;;;;;;;;;;;19.65;53.66;101697.31;7390218;19;1437;-76
2024/02/21 09:35:41;;;;;;;;;;;;;;;19.63;53.92;101707.31;7391789;19;1558;-76
2024/02/21 09:38:12;;;;;;;;;;;;;;;19.58;54.06;101701.47;7389595;19;1916;-75
2024/02/21 09:40:42;;;;;;;;;;;;;;;19.64;53.62;101692.09;7391347;19;1338;-76
2024/02/21 09:43:10;;;;;;;;;;;;;;;19.68;53.56;101690.88;7389712;19;1753;-76
2024/02/21 09:45:41;;;;;;;;;;;;;;;19.71;53.96;101696.03;7387912;19;1567;-75
2024/02/21 09:48:16;;;;;;;;;;;;;;;19.70;54.14;101705.03;7390220;19;1860;-77
2024/02/21 09:50:46;;;;;;;;;;;;;;;19.66;54.10;101699.03;7388763;19;1769;-76
2024/02/21 09:53:17;;;;;;;;;;;;;;;19.65;54.42;101691.09;7390598;19;1489;-75
2024/02/21 09:55:46;;;;;;;;;;;;;;;19.65;54.31;101681.22;7394454;19;1543;-76
2024/02/21 09:58:15;;;;;;;;;;;;;;;19.64;54.25;101678.69;7394012;19;2004;-76
2024/02/21 10:00:43;;;;;;;;;;;;;;;19.51;54.48;101681.44;7378917;19;1650;-76
2024/02/21 10:03:12;;;;;;;;;;;;;;;18.82;52.78;101694.59;7392316;19;1342;-76
2024/02/21 10:05:41;;;;;;;;;;;;;;;18.64;55.44;101686.91;7395898;19;1645;-76
2024/02/21 10:08:10;;;;;;;;;;;;;;;18.59;55.24;101699.78;7391957;19;1734;-76
2024/02/21 10:10:49;;;;;;;;;;;;;;;18.86;54.06;101677.31;7396509;19;1260;-75
2024/02/21 10:13:35;;;;;;;;;;;;;;;19.31;53.55;101672.19;7391992;19;1488;-75
2024/02/21 10:16:04;;;;;;;;;;;;;;;19.44;53.55;101670.31;7395315;19;1498;-75
2024/02/21 10:18:33;;;;;;;;;;;;;;;19.62;53.27;101669.88;7396358;19;1564;-76
2024/02/21 10:21:05;;;;;;;;;;;;;;;19.69;53.10;101660.38;7396591;19;1578;-76
2024/02/21 10:23:43;;;;;;;;;;;;;;;19.46;53.85;101654.97;7394314;19;1203;-75
2024/02/21 10:26:14;;;;;;;;;;;;;;;19.16;54.92;101650.09;7394914;19;1523;-76
2024/02/21 10:28:44;;;;;;;;;;;;;;;18.92;55.35;101650.09;7394288;19;1838;-76
2024/02/21 10:31:13;;;;;;;;;;;;;;;18.81;55.99;101647.34;7400029;19;1302;-76
2024/02/21 10:33:42;;;;;;;;;;;;;;;19.01;55.68;101622.59;7394952;19;1777;-76
2024/02/21 10:36:13;;;;;;;;;;;;;;;19.41;55.19;101635.66;7395305;19;1892;-77
2024/02/21 10:38:42;;;;;;;;;;;;;;;19.76;54.66;101633.97;7394181;19;1782;-76
2024/02/21 10:41:14;;;;;;;;;;;;;;;19.41;55.67;101632.97;7390931;19;1933;-76
2024/02/21 10:43:49;;;;;;;;;;;;;;;19.11;56.76;101633.47;7393940;19;1384;-76
2024/02/21 10:46:21;;;;;;;;;;;;;;;18.91;57.58;101626.94;7392681;19;1216;-75
2024/02/21 10:48:50;;;;;;;;;;;;;;;18.85;58.73;101622.88;7394728;19;1830;-76
2024/02/21 10:51:20;;;;;;;;;;;;;;;18.79;59.11;101622.44;7394631;19;1742;-75
2024/02/21 10:53:51;;;;;;;;;;;;;;;18.83;57.25;101615.94;7394347;19;1509;-76
2024/02/21 10:56:24;;;;;;;;;;;;;;;19.11;56.08;101606.66;7396145;19;1519;-76
2024/02/21 10:58:56;;;;;;;;;;;;;;;19.41;55.38;101603.47;7394087;19;1504;-77
2024/02/21 11:01:27;;;;;;;;;;;;;;;19.77;55.05;101607.00;7385511;19;1101;-77
2024/02/21 11:03:56;;;;;;;;;;;;;;;19.83;54.95;101617.25;7395515;19;1073;-77
2024/02/21 11:06:25;;;;;;;;;;;;;;;19.38;56.53;101601.03;7393401;19;1905;-76
2024/02/21 11:09:06;;;;;;;;;;;;;;;18.94;58.42;101596.34;7390763;19;1841;-76
2024/02/21 11:11:38;;;;;;;;;;;;;;;19.15;57.93;101583.16;7389052;19;1624;-75
2024/02/21 11:14:11;;;;;;;;;;;;;;;19.59;56.74;101586.94;7392589;19;1399;-76
2024/02/21 11:16:42;;;;;;;;;;;;;;;19.76;56.81;101585.66;7391419;19;1333;-76
2024/02/21 11:19:11;;;;;;;;;;;;;;;19.92;56.57;101570.06;7390479;19;1215;-75
2024/02/21 11:21:41;;;;;;;;;;;;;;;19.64;57.28;101582.94;7388983;19;1477;-76
2024/02/21 11:24:10;;;;;;;;;;;;;;;19.27;58.08;101584.91;7393079;19;1620;-76
2024/02/21 11:26:41;;;;;;;;;;;;;;;18.95;58.99;101574.81;7395951;19;1558;-76
2024/02/21 11:29:13;;;;;;;;;;;;;;;19.23;58.15;101584.28;7390202;19;1833;-76
2024/02/21 11:31:42;;;;;;;;;;;;;;;19.67;56.98;101582.66;7393683;19;1884;-76
2024/02/21 11:34:13;;;;;;;;;;;;;;;19.83;56.61;101568.94;7389093;19;1407;-75
2024/02/21 11:36:51;;;;;;;;;;;;;;;19.97;56.34;101585.78;7391920;19;1247;-76
2024/02/21 11:39:24;;;;;;;;;;;;;;;20.00;56.01;101567.59;7398483;19;1054;-76
2024/02/21 11:42:03;;;;;;;;;;;;;;;19.92;56.04;101553.94;7398760;19;1282;-76
2024/02/21 11:44:35;;;;;;;;;;;;;;;19.88;56.02;101570.44;7392458;19;1081;-76
2024/02/21 11:47:03;;;;;;;;;;;;;;;19.83;56.26;101557.34;7393672;19;1932;-76
2024/02/21 11:49:32;;;;;;;;;;;;;;;19.81;56.37;101554.78;7396744;19;1861;-75
2024/02/21 11:52:03;;;;;;;;;;;;;;;19.76;56.34;101546.25;7397934;19;1180;-76
2024/02/21 11:54:32;;;;;;;;;;;;;;;19.73;56.29;101549.16;7405355;19;1287;-77
2024/02/21 11:57:00;;;;;;;;;;;;;;;19.79;56.23;101546.00;7406801;19;1512;-76
2024/02/21 11:59:28;;;;;;;;;;;;;;;19.73;56.26;101549.16;7403631;19;1658;-75
2024/02/21 12:02:01;;;;;;;;;;;;;;;19.74;56.13;101544.69;7391987;19;1231;-76
2024/02/21 12:04:31;;;;;;;;;;;;;;;19.72;56.08;101543.94;7406969;19;1097;-76
2024/02/21 12:07:00;;;;;;;;;;;;;;;19.78;55.92;101528.19;7407420;19;1880;-75
2024/02/21 12:09:28;;;;;;;;;;;;;;;19.77;55.99;101526.47;7404063;19;1836;-77
2024/02/21 12:12:00;;;;;;;;;;;;;;;19.75;55.85;101536.47;7404712;19;1783;-76
2024/02/21 12:14:28;;;;;;;;;;;;;;;19.76;55.91;101526.63;7404425;19;1689;-76
2024/02/21 12:17:00;;;;;;;;;;;;;;;19.75;55.85;101536.47;7405152;19;954;-76
2024/02/21 12:19:28;;;;;;;;;;;;;;;19.76;55.79;101526.63;7405040;19;1595;-75
2024/02/21 12:21:58;;;;;;;;;;;;;;;19.76;55.76;101532.84;7404931;19;1611;-76
2024/02/21 12:24:27;;;;;;;;;;;;;;;19.77;55.74;101522.94;7398936;19;1593;-75
2024/02/21 12:26:55;;;;;;;;;;;;;;;19.75;55.89;101514.16;7399999;19;1484;-75
2024/02/21 12:29:24;;;;;;;;;;;;;;;19.79;55.51;101521.84;7397684;19;1849;-76
2024/02/21 12:31:53;;;;;;;;;;;;;;;19.79;55.67;101516.47;7397393;19;1493;-76
2024/02/21 12:34:26;;;;;;;;;;;;;;;19.78;55.67;101524.69;7400551;19;1270;-76
2024/02/21 12:36:55;;;;;;;;;;;;;;;19.75;55.75;101515.00;7400941;19;1718;-76
2024/02/21 12:39:23;;;;;;;;;;;;;;;19.74;55.49;101518.69;7399151;19;1061;-76
2024/02/21 12:41:52;;;;;;;;;;;;;;;19.79;55.50;101527.22;7400013;19;1023;-76
2024/02/21 12:44:20;;;;;;;;;;;;;;;19.74;55.69;101516.00;7396335;19;1421;-76
2024/02/21 12:46:51;;;;;;;;;;;;;;;19.74;55.51;101507.97;7396953;19;1422;-76
2024/02/21 12:49:20;;;;;;;;;;;;;;;19.74;55.66;101507.97;7399283;19;2084;-76
2024/02/21 12:51:52;;;;;;;;;;;;;;;19.78;55.44;101517.47;7398868;19;1849;-76
2024/02/21 12:54:20;;;;;;;;;;;;;;;19.78;55.39;101505.88;7398122;19;1314;-76
2024/02/21 12:56:49;;;;;;;;;;;;;;;19.82;55.23;101520.78;7393404;19;2429;-76
2024/02/21 12:59:18;;;;;;;;;;;;;;;19.79;55.42;101510.25;7393720;19;1692;-76